sensor_id;sensor_type;location;lat;lon;timestamp;P1;durP1;ratioP1;P2;durP2;ratioP2
17592;SDS011;8915;51.760;14.300;2022-09-27T00:00:24;3.33;;;2.07;;
17592;SDS011;8915;51.760;14.300;2022-09-27T00:02:51;2.83;;;2.00;;
17592;SDS011;8915;51.760;14.300;2022-09-27T00:05:17;2.50;;;1.77;;
17592;SDS011;8915;51.760;14.300;2022-09-27T00:07:45;2.93;;;1.60;;
17592;SDS011;8915;51.760;14.300;2022-09-27T00:10:11;4.10;;;1.87;;
17592;SDS011;8915;51.760;14.300;2022-09-27T00:12:38;5.13;;;2.23;;
17592;SDS011;8915;51.760;14.300;2022-09-27T00:15:06;2.10;;;1.70;;
17592;SDS011;8915;51.760;14.300;2022-09-27T00:17:34;2.30;;;2.10;;
17592;SDS011;8915;51.760;14.300;2022-09-27T00:20:01;2.30;;;1.90;;
17592;SDS011;8915;51.760;14.300;2022-09-27T00:22:30;3.10;;;2.10;;
17592;SDS011;8915;51.760;14.300;2022-09-27T00:24:58;3.10;;;2.20;;
17592;SDS011;8915;51.760;14.300;2022-09-27T00:27:24;3.50;;;2.20;;
17592;SDS011;8915;51.760;14.300;2022-09-27T00:29:52;4.23;;;2.40;;
17592;SDS011;8915;51.760;14.300;2022-09-27T00:32:18;2.33;;;2.03;;
17592;SDS011;8915;51.760;14.300;2022-09-27T00:34:45;2.90;;;2.10;;
17592;SDS011;8915;51.760;14.300;2022-09-27T00:37:11;5.37;;;2.07;;
17592;SDS011;8915;51.760;14.300;2022-09-27T00:39:38;2.23;;;2.00;;
17592;SDS011;8915;51.760;14.300;2022-09-27T00:42:07;2.77;;;2.00;;
17592;SDS011;8915;51.760;14.300;2022-09-27T00:44:53;3.13;;;2.10;;
17592;SDS011;8915;51.760;14.300;2022-09-27T00:47:26;2.70;;;2.00;;
17592;SDS011;8915;51.760;14.300;2022-09-27T00:50:09;4.17;;;2.20;;
17592;SDS011;8915;51.760;14.300;2022-09-27T00:52:44;2.37;;;1.73;;
17592;SDS011;8915;51.760;14.300;2022-09-27T00:55:19;2.57;;;1.93;;
17592;SDS011;8915;51.760;14.300;2022-09-27T00:57:50;1.70;;;1.60;;
17592;SDS011;8915;51.760;14.300;2022-09-27T01:00:17;3.03;;;2.00;;
17592;SDS011;8915;51.760;14.300;2022-09-27T01:02:44;3.33;;;2.23;;
17592;SDS011;8915;51.760;14.300;2022-09-27T01:05:15;2.50;;;2.07;;
17592;SDS011;8915;51.760;14.300;2022-09-27T01:07:44;5.33;;;1.97;;
17592;SDS011;8915;51.760;14.300;2022-09-27T01:10:10;5.40;;;2.30;;
17592;SDS011;8915;51.760;14.300;2022-09-27T01:12:41;2.90;;;2.20;;
17592;SDS011;8915;51.760;14.300;2022-09-27T01:15:21;3.43;;;1.90;;
17592;SDS011;8915;51.760;14.300;2022-09-27T01:17:53;2.47;;;2.07;;
17592;SDS011;8915;51.760;14.300;2022-09-27T01:20:38;2.30;;;1.80;;
17592;SDS011;8915;51.760;14.300;2022-09-27T01:23:32;2.77;;;2.17;;
17592;SDS011;8915;51.760;14.300;2022-09-27T01:26:24;4.40;;;2.27;;
17592;SDS011;8915;51.760;14.300;2022-09-27T01:29:03;2.20;;;2.00;;
17592;SDS011;8915;51.760;14.300;2022-09-27T01:31:37;4.60;;;1.93;;
17592;SDS011;8915;51.760;14.300;2022-09-27T01:34:12;2.30;;;2.10;;
17592;SDS011;8915;51.760;14.300;2022-09-27T01:36:48;2.57;;;1.97;;
17592;SDS011;8915;51.760;14.300;2022-09-27T01:39:22;2.37;;;1.77;;
17592;SDS011;8915;51.760;14.300;2022-09-27T01:42:18;2.00;;;1.80;;
17592;SDS011;8915;51.760;14.300;2022-09-27T01:44:54;2.73;;;1.70;;
17592;SDS011;8915;51.760;14.300;2022-09-27T01:47:34;6.83;;;2.10;;
17592;SDS011;8915;51.760;14.300;2022-09-27T01:50:31;3.40;;;2.10;;
17592;SDS011;8915;51.760;14.300;2022-09-27T01:53:02;5.77;;;1.90;;
17592;SDS011;8915;51.760;14.300;2022-09-27T01:55:42;2.07;;;1.83;;
17592;SDS011;8915;51.760;14.300;2022-09-27T01:58:38;3.83;;;1.83;;
17592;SDS011;8915;51.760;14.300;2022-09-27T02:01:08;1.80;;;1.60;;
17592;SDS011;8915;51.760;14.300;2022-09-27T02:03:39;2.83;;;1.97;;
17592;SDS011;8915;51.760;14.300;2022-09-27T02:06:29;2.00;;;1.50;;
17592;SDS011;8915;51.760;14.300;2022-09-27T02:09:12;4.57;;;1.77;;
17592;SDS011;8915;51.760;14.300;2022-09-27T02:11:57;3.30;;;1.93;;
17592;SDS011;8915;51.760;14.300;2022-09-27T02:14:30;2.27;;;1.63;;
17592;SDS011;8915;51.760;14.300;2022-09-27T02:17:04;2.43;;;1.60;;
17592;SDS011;8915;51.760;14.300;2022-09-27T02:19:37;3.23;;;1.70;;
17592;SDS011;8915;51.760;14.300;2022-09-27T02:22:14;1.43;;;1.33;;
17592;SDS011;8915;51.760;14.300;2022-09-27T02:24:47;1.63;;;1.47;;
17592;SDS011;8915;51.760;14.300;2022-09-27T02:27:20;2.07;;;1.50;;
17592;SDS011;8915;51.760;14.300;2022-09-27T02:29:52;1.90;;;1.43;;
17592;SDS011;8915;51.760;14.300;2022-09-27T02:32:23;2.27;;;1.67;;
17592;SDS011;8915;51.760;14.300;2022-09-27T02:34:51;3.13;;;1.60;;
17592;SDS011;8915;51.760;14.300;2022-09-27T02:37:20;5.10;;;1.70;;
17592;SDS011;8915;51.760;14.300;2022-09-27T02:39:46;3.37;;;1.60;;
17592;SDS011;8915;51.760;14.300;2022-09-27T02:42:13;1.90;;;1.40;;
17592;SDS011;8915;51.760;14.300;2022-09-27T02:44:41;1.63;;;1.10;;
17592;SDS011;8915;51.760;14.300;2022-09-27T02:47:12;1.77;;;1.43;;
17592;SDS011;8915;51.760;14.300;2022-09-27T02:49:58;1.53;;;1.43;;
17592;SDS011;8915;51.760;14.300;2022-09-27T02:52:47;3.73;;;1.30;;
17592;SDS011;8915;51.760;14.300;2022-09-27T02:55:24;1.50;;;1.40;;
17592;SDS011;8915;51.760;14.300;2022-09-27T02:58:15;1.47;;;1.20;;
17592;SDS011;8915;51.760;14.300;2022-09-27T03:01:11;1.97;;;1.40;;
17592;SDS011;8915;51.760;14.300;2022-09-27T03:04:01;2.90;;;1.50;;
17592;SDS011;8915;51.760;14.300;2022-09-27T03:06:34;1.27;;;1.00;;
17592;SDS011;8915;51.760;14.300;2022-09-27T03:09:03;1.30;;;1.20;;
17592;SDS011;8915;51.760;14.300;2022-09-27T03:11:29;1.23;;;1.07;;
17592;SDS011;8915;51.760;14.300;2022-09-27T03:13:57;2.27;;;1.47;;
17592;SDS011;8915;51.760;14.300;2022-09-27T03:16:24;2.33;;;1.53;;
17592;SDS011;8915;51.760;14.300;2022-09-27T03:19:01;1.90;;;1.23;;
17592;SDS011;8915;51.760;14.300;2022-09-27T03:21:58;2.20;;;1.33;;
17592;SDS011;8915;51.760;14.300;2022-09-27T03:24:24;2.53;;;1.73;;
17592;SDS011;8915;51.760;14.300;2022-09-27T03:26:51;2.80;;;1.23;;
17592;SDS011;8915;51.760;14.300;2022-09-27T03:29:17;1.63;;;1.30;;
17592;SDS011;8915;51.760;14.300;2022-09-27T03:31:49;1.93;;;1.30;;
17592;SDS011;8915;51.760;14.300;2022-09-27T03:34:48;4.03;;;1.70;;
17592;SDS011;8915;51.760;14.300;2022-09-27T03:37:16;1.30;;;1.20;;
17592;SDS011;8915;51.760;14.300;2022-09-27T03:39:43;2.40;;;1.20;;
17592;SDS011;8915;51.760;14.300;2022-09-27T03:42:09;1.60;;;1.40;;
17592;SDS011;8915;51.760;14.300;2022-09-27T03:44:41;2.60;;;1.57;;
17592;SDS011;8915;51.760;14.300;2022-09-27T03:47:08;3.33;;;1.67;;
17592;SDS011;8915;51.760;14.300;2022-09-27T03:49:35;3.00;;;1.37;;
17592;SDS011;8915;51.760;14.300;2022-09-27T03:52:01;2.37;;;1.50;;
17592;SDS011;8915;51.760;14.300;2022-09-27T03:54:29;1.60;;;1.40;;
17592;SDS011;8915;51.760;14.300;2022-09-27T03:56:55;2.30;;;1.40;;
17592;SDS011;8915;51.760;14.300;2022-09-27T03:59:22;3.70;;;1.47;;
17592;SDS011;8915;51.760;14.300;2022-09-27T04:02:08;1.93;;;1.33;;
17592;SDS011;8915;51.760;14.300;2022-09-27T04:04:57;1.40;;;1.20;;
17592;SDS011;8915;51.760;14.300;2022-09-27T04:07:24;2.37;;;1.57;;
17592;SDS011;8915;51.760;14.300;2022-09-27T04:09:52;3.57;;;1.37;;
17592;SDS011;8915;51.760;14.300;2022-09-27T04:12:19;1.70;;;1.30;;
17592;SDS011;8915;51.760;14.300;2022-09-27T04:14:45;1.40;;;1.30;;
17592;SDS011;8915;51.760;14.300;2022-09-27T04:17:39;2.33;;;1.40;;
17592;SDS011;8915;51.760;14.300;2022-09-27T04:20:29;2.03;;;1.50;;
17592;SDS011;8915;51.760;14.300;2022-09-27T04:22:57;2.00;;;1.37;;
17592;SDS011;8915;51.760;14.300;2022-09-27T04:25:24;2.03;;;1.30;;
17592;SDS011;8915;51.760;14.300;2022-09-27T04:27:54;1.50;;;1.40;;
17592;SDS011;8915;51.760;14.300;2022-09-27T04:30:21;1.57;;;1.40;;
17592;SDS011;8915;51.760;14.300;2022-09-27T04:33:12;2.10;;;1.57;;
17592;SDS011;8915;51.760;14.300;2022-09-27T04:35:58;2.23;;;1.67;;
17592;SDS011;8915;51.760;14.300;2022-09-27T04:39:04;2.33;;;1.50;;
17592;SDS011;8915;51.760;14.300;2022-09-27T04:41:37;2.73;;;1.67;;
17592;SDS011;8915;51.760;14.300;2022-09-27T04:44:04;1.20;;;1.10;;
17592;SDS011;8915;51.760;14.300;2022-09-27T04:46:30;2.67;;;1.77;;
17592;SDS011;8915;51.760;14.300;2022-09-27T04:48:58;2.00;;;1.53;;
17592;SDS011;8915;51.760;14.300;2022-09-27T04:51:27;2.53;;;1.30;;
17592;SDS011;8915;51.760;14.300;2022-09-27T04:53:54;2.33;;;1.60;;
17592;SDS011;8915;51.760;14.300;2022-09-27T04:56:22;2.33;;;1.40;;
17592;SDS011;8915;51.760;14.300;2022-09-27T04:58:50;3.00;;;1.60;;
17592;SDS011;8915;51.760;14.300;2022-09-27T05:01:17;3.07;;;1.80;;
17592;SDS011;8915;51.760;14.300;2022-09-27T05:04:02;1.50;;;1.13;;
17592;SDS011;8915;51.760;14.300;2022-09-27T05:06:30;1.93;;;1.50;;
17592;SDS011;8915;51.760;14.300;2022-09-27T05:09:03;1.50;;;1.40;;
17592;SDS011;8915;51.760;14.300;2022-09-27T05:11:35;2.63;;;1.60;;
17592;SDS011;8915;51.760;14.300;2022-09-27T05:14:15;2.10;;;1.70;;
17592;SDS011;8915;51.760;14.300;2022-09-27T05:17:05;2.70;;;1.53;;
17592;SDS011;8915;51.760;14.300;2022-09-27T05:20:04;1.90;;;1.60;;
17592;SDS011;8915;51.760;14.300;2022-09-27T05:22:38;2.60;;;1.80;;
17592;SDS011;8915;51.760;14.300;2022-09-27T05:25:05;1.60;;;1.50;;
17592;SDS011;8915;51.760;14.300;2022-09-27T05:27:32;3.30;;;2.83;;
17592;SDS011;8915;51.760;14.300;2022-09-27T05:30:00;5.00;;;3.13;;
17592;SDS011;8915;51.760;14.300;2022-09-27T05:32:35;8.13;;;4.27;;
17592;SDS011;8915;51.760;14.300;2022-09-27T05:35:32;8.20;;;4.77;;
17592;SDS011;8915;51.760;14.300;2022-09-27T05:38:00;4.90;;;4.43;;
17592;SDS011;8915;51.760;14.300;2022-09-27T05:40:29;6.30;;;4.20;;
17592;SDS011;8915;51.760;14.300;2022-09-27T05:42:56;5.33;;;3.23;;
17592;SDS011;8915;51.760;14.300;2022-09-27T05:45:24;2.60;;;2.40;;
17592;SDS011;8915;51.760;14.300;2022-09-27T05:47:54;3.60;;;3.10;;
17592;SDS011;8915;51.760;14.300;2022-09-27T05:50:23;4.03;;;2.50;;
17592;SDS011;8915;51.760;14.300;2022-09-27T05:52:50;3.03;;;2.00;;
17592;SDS011;8915;51.760;14.300;2022-09-27T05:55:18;2.70;;;2.50;;
17592;SDS011;8915;51.760;14.300;2022-09-27T05:57:55;2.50;;;1.97;;
17592;SDS011;8915;51.760;14.300;2022-09-27T06:00:29;5.70;;;2.20;;
17592;SDS011;8915;51.760;14.300;2022-09-27T06:02:58;3.33;;;2.70;;
17592;SDS011;8915;51.760;14.300;2022-09-27T06:05:44;2.37;;;2.17;;
17592;SDS011;8915;51.760;14.300;2022-09-27T06:08:34;2.20;;;2.00;;
17592;SDS011;8915;51.760;14.300;2022-09-27T06:11:03;4.40;;;2.47;;
17592;SDS011;8915;51.760;14.300;2022-09-27T06:13:32;3.87;;;2.40;;
17592;SDS011;8915;51.760;14.300;2022-09-27T06:16:01;2.80;;;2.50;;
17592;SDS011;8915;51.760;14.300;2022-09-27T06:18:28;5.57;;;2.67;;
17592;SDS011;8915;51.760;14.300;2022-09-27T06:20:57;4.00;;;2.50;;
17592;SDS011;8915;51.760;14.300;2022-09-27T06:23:24;2.63;;;2.20;;
17592;SDS011;8915;51.760;14.300;2022-09-27T06:25:52;3.43;;;2.43;;
17592;SDS011;8915;51.760;14.300;2022-09-27T06:28:32;2.63;;;2.40;;
17592;SDS011;8915;51.760;14.300;2022-09-27T06:31:03;2.43;;;2.13;;
17592;SDS011;8915;51.760;14.300;2022-09-27T06:33:45;3.93;;;2.50;;
17592;SDS011;8915;51.760;14.300;2022-09-27T06:36:13;3.03;;;2.60;;
17592;SDS011;8915;51.760;14.300;2022-09-27T06:38:40;3.40;;;2.63;;
17592;SDS011;8915;51.760;14.300;2022-09-27T06:41:13;4.60;;;2.60;;
17592;SDS011;8915;51.760;14.300;2022-09-27T06:43:51;3.13;;;2.53;;
17592;SDS011;8915;51.760;14.300;2022-09-27T06:46:44;5.00;;;2.90;;
17592;SDS011;8915;51.760;14.300;2022-09-27T06:49:27;3.80;;;2.77;;
17592;SDS011;8915;51.760;14.300;2022-09-27T06:51:55;4.43;;;3.60;;
17592;SDS011;8915;51.760;14.300;2022-09-27T06:54:22;4.73;;;2.87;;
17592;SDS011;8915;51.760;14.300;2022-09-27T06:56:48;4.17;;;3.10;;
17592;SDS011;8915;51.760;14.300;2022-09-27T06:59:15;3.10;;;2.73;;
17592;SDS011;8915;51.760;14.300;2022-09-27T07:02:20;5.40;;;3.13;;
17592;SDS011;8915;51.760;14.300;2022-09-27T07:05:09;4.23;;;3.50;;
17592;SDS011;8915;51.760;14.300;2022-09-27T07:07:48;4.70;;;3.70;;
17592;SDS011;8915;51.760;14.300;2022-09-27T07:10:17;4.40;;;3.20;;
17592;SDS011;8915;51.760;14.300;2022-09-27T07:12:44;3.63;;;2.90;;
17592;SDS011;8915;51.760;14.300;2022-09-27T07:15:14;4.73;;;3.30;;
17592;SDS011;8915;51.760;14.300;2022-09-27T07:17:41;4.10;;;2.80;;
17592;SDS011;8915;51.760;14.300;2022-09-27T07:20:08;3.87;;;3.03;;
17592;SDS011;8915;51.760;14.300;2022-09-27T07:22:38;3.43;;;2.93;;
17592;SDS011;8915;51.760;14.300;2022-09-27T07:25:06;6.57;;;4.00;;
17592;SDS011;8915;51.760;14.300;2022-09-27T07:27:33;6.97;;;4.50;;
17592;SDS011;8915;51.760;14.300;2022-09-27T07:29:59;5.60;;;3.90;;
17592;SDS011;8915;51.760;14.300;2022-09-27T07:32:26;4.40;;;3.30;;
17592;SDS011;8915;51.760;14.300;2022-09-27T07:34:54;5.43;;;3.23;;
17592;SDS011;8915;51.760;14.300;2022-09-27T07:37:21;4.00;;;3.20;;
17592;SDS011;8915;51.760;14.300;2022-09-27T07:39:47;4.90;;;3.30;;
17592;SDS011;8915;51.760;14.300;2022-09-27T07:42:14;4.60;;;3.30;;
17592;SDS011;8915;51.760;14.300;2022-09-27T07:44:44;3.63;;;3.13;;
17592;SDS011;8915;51.760;14.300;2022-09-27T07:47:27;5.17;;;3.57;;
17592;SDS011;8915;51.760;14.300;2022-09-27T07:50:08;5.97;;;3.53;;
17592;SDS011;8915;51.760;14.300;2022-09-27T07:52:57;4.60;;;3.90;;
17592;SDS011;8915;51.760;14.300;2022-09-27T07:55:34;7.27;;;4.67;;
17592;SDS011;8915;51.760;14.300;2022-09-27T07:58:07;5.70;;;4.57;;
17592;SDS011;8915;51.760;14.300;2022-09-27T08:00:36;8.37;;;7.13;;
17592;SDS011;8915;51.760;14.300;2022-09-27T08:03:04;7.90;;;6.93;;
17592;SDS011;8915;51.760;14.300;2022-09-27T08:05:34;8.60;;;7.33;;
17592;SDS011;8915;51.760;14.300;2022-09-27T08:08:01;8.33;;;4.70;;
17592;SDS011;8915;51.760;14.300;2022-09-27T08:10:28;5.57;;;4.43;;
17592;SDS011;8915;51.760;14.300;2022-09-27T08:12:56;5.23;;;4.30;;
17592;SDS011;8915;51.760;14.300;2022-09-27T08:15:23;8.70;;;5.07;;
17592;SDS011;8915;51.760;14.300;2022-09-27T08:17:50;5.33;;;4.27;;
17592;SDS011;8915;51.760;14.300;2022-09-27T08:20:27;5.13;;;4.13;;
17592;SDS011;8915;51.760;14.300;2022-09-27T08:23:24;4.73;;;3.83;;
17592;SDS011;8915;51.760;14.300;2022-09-27T08:26:05;4.37;;;3.80;;
17592;SDS011;8915;51.760;14.300;2022-09-27T08:28:47;5.97;;;4.50;;
17592;SDS011;8915;51.760;14.300;2022-09-27T08:31:19;6.63;;;4.23;;
17592;SDS011;8915;51.760;14.300;2022-09-27T08:33:47;4.67;;;3.93;;
17592;SDS011;8915;51.760;14.300;2022-09-27T08:36:14;4.53;;;3.80;;
17592;SDS011;8915;51.760;14.300;2022-09-27T08:38:42;5.50;;;4.03;;
17592;SDS011;8915;51.760;14.300;2022-09-27T08:41:11;4.57;;;4.07;;
17592;SDS011;8915;51.760;14.300;2022-09-27T08:43:48;5.60;;;4.00;;
17592;SDS011;8915;51.760;14.300;2022-09-27T08:46:37;4.83;;;4.03;;
17592;SDS011;8915;51.760;14.300;2022-09-27T08:49:15;4.57;;;3.37;;
17592;SDS011;8915;51.760;14.300;2022-09-27T08:51:47;4.80;;;4.07;;
17592;SDS011;8915;51.760;14.300;2022-09-27T08:54:19;4.43;;;3.77;;
17592;SDS011;8915;51.760;14.300;2022-09-27T08:56:50;3.87;;;3.00;;
17592;SDS011;8915;51.760;14.300;2022-09-27T08:59:19;6.83;;;4.37;;
17592;SDS011;8915;51.760;14.300;2022-09-27T09:01:49;6.10;;;3.97;;
17592;SDS011;8915;51.760;14.300;2022-09-27T09:04:29;3.63;;;3.20;;
17592;SDS011;8915;51.760;14.300;2022-09-27T09:07:02;3.80;;;3.00;;
17592;SDS011;8915;51.760;14.300;2022-09-27T09:09:41;4.43;;;3.50;;
17592;SDS011;8915;51.760;14.300;2022-09-27T09:12:23;3.80;;;3.40;;
17592;SDS011;8915;51.760;14.300;2022-09-27T09:15:37;5.20;;;3.33;;
17592;SDS011;8915;51.760;14.300;2022-09-27T09:18:33;4.63;;;3.43;;
17592;SDS011;8915;51.760;14.300;2022-09-27T09:21:39;3.43;;;3.00;;
17592;SDS011;8915;51.760;14.300;2022-09-27T09:24:16;4.70;;;3.20;;
17592;SDS011;8915;51.760;14.300;2022-09-27T09:26:54;3.43;;;2.90;;
17592;SDS011;8915;51.760;14.300;2022-09-27T09:29:31;2.70;;;2.50;;
17592;SDS011;8915;51.760;14.300;2022-09-27T09:32:09;4.27;;;3.10;;
17592;SDS011;8915;51.760;14.300;2022-09-27T09:34:46;3.23;;;2.33;;
17592;SDS011;8915;51.760;14.300;2022-09-27T09:37:18;3.43;;;2.80;;
17592;SDS011;8915;51.760;14.300;2022-09-27T09:39:49;3.17;;;2.60;;
17592;SDS011;8915;51.760;14.300;2022-09-27T09:42:24;7.03;;;3.07;;
17592;SDS011;8915;51.760;14.300;2022-09-27T09:44:54;2.90;;;2.40;;
17592;SDS011;8915;51.760;14.300;2022-09-27T09:47:26;5.80;;;2.17;;
17592;SDS011;8915;51.760;14.300;2022-09-27T09:50:03;2.90;;;1.97;;
17592;SDS011;8915;51.760;14.300;2022-09-27T09:52:41;2.10;;;1.87;;
17592;SDS011;8915;51.760;14.300;2022-09-27T09:55:15;3.67;;;1.77;;
17592;SDS011;8915;51.760;14.300;2022-09-27T09:57:48;2.00;;;1.80;;
17592;SDS011;8915;51.760;14.300;2022-09-27T10:00:29;2.10;;;1.87;;
17592;SDS011;8915;51.760;14.300;2022-09-27T10:02:57;1.50;;;1.40;;
17592;SDS011;8915;51.760;14.300;2022-09-27T10:05:25;1.60;;;1.50;;
17592;SDS011;8915;51.760;14.300;2022-09-27T10:07:59;1.90;;;1.63;;
17592;SDS011;8915;51.760;14.300;2022-09-27T10:10:29;2.00;;;1.70;;
17592;SDS011;8915;51.760;14.300;2022-09-27T10:13:20;2.00;;;1.80;;
17592;SDS011;8915;51.760;14.300;2022-09-27T10:15:55;2.07;;;1.87;;
17592;SDS011;8915;51.760;14.300;2022-09-27T10:18:26;1.63;;;1.53;;
17592;SDS011;8915;51.760;14.300;2022-09-27T10:20:55;1.60;;;1.50;;
17592;SDS011;8915;51.760;14.300;2022-09-27T10:23:25;2.37;;;2.10;;
17592;SDS011;8915;51.760;14.300;2022-09-27T10:26:17;1.90;;;1.80;;
17592;SDS011;8915;51.760;14.300;2022-09-27T10:28:49;1.93;;;1.73;;
17592;SDS011;8915;51.760;14.300;2022-09-27T10:31:21;2.30;;;2.10;;
17592;SDS011;8915;51.760;14.300;2022-09-27T10:34:02;2.20;;;1.70;;
17592;SDS011;8915;51.760;14.300;2022-09-27T10:36:35;1.63;;;1.53;;
17592;SDS011;8915;51.760;14.300;2022-09-27T10:39:04;2.70;;;1.47;;
17592;SDS011;8915;51.760;14.300;2022-09-27T10:41:39;1.40;;;1.30;;
17592;SDS011;8915;51.760;14.300;2022-09-27T10:44:23;1.83;;;1.33;;
17592;SDS011;8915;51.760;14.300;2022-09-27T10:47:04;2.30;;;1.40;;
17592;SDS011;8915;51.760;14.300;2022-09-27T10:49:49;2.10;;;1.70;;
17592;SDS011;8915;51.760;14.300;2022-09-27T10:52:36;6.37;;;3.93;;
17592;SDS011;8915;51.760;14.300;2022-09-27T10:55:06;5.90;;;3.10;;
17592;SDS011;8915;51.760;14.300;2022-09-27T10:57:52;3.57;;;2.27;;
17592;SDS011;8915;51.760;14.300;2022-09-27T11:00:23;1.87;;;1.60;;
17592;SDS011;8915;51.760;14.300;2022-09-27T11:02:53;2.57;;;1.73;;
17592;SDS011;8915;51.760;14.300;2022-09-27T11:05:29;1.50;;;1.40;;
17592;SDS011;8915;51.760;14.300;2022-09-27T11:07:58;1.90;;;1.60;;
17592;SDS011;8915;51.760;14.300;2022-09-27T11:10:44;8.23;;;3.50;;
17592;SDS011;8915;51.760;14.300;2022-09-27T11:13:27;3.70;;;1.60;;
17592;SDS011;8915;51.760;14.300;2022-09-27T11:16:06;1.30;;;1.20;;
17592;SDS011;8915;51.760;14.300;2022-09-27T11:18:48;1.90;;;1.27;;
17592;SDS011;8915;51.760;14.300;2022-09-27T11:21:21;2.60;;;2.17;;
17592;SDS011;8915;51.760;14.300;2022-09-27T11:24:00;3.93;;;2.70;;
17592;SDS011;8915;51.760;14.300;2022-09-27T11:26:40;2.03;;;1.77;;
17592;SDS011;8915;51.760;14.300;2022-09-27T11:29:19;1.97;;;1.23;;
17592;SDS011;8915;51.760;14.300;2022-09-27T11:32:21;1.00;;;1.00;;
17592;SDS011;8915;51.760;14.300;2022-09-27T11:35:07;1.77;;;1.40;;
17592;SDS011;8915;51.760;14.300;2022-09-27T11:37:52;1.40;;;1.07;;
17592;SDS011;8915;51.760;14.300;2022-09-27T11:40:29;3.40;;;2.37;;
17592;SDS011;8915;51.760;14.300;2022-09-27T11:43:13;14.83;;;8.27;;
17592;SDS011;8915;51.760;14.300;2022-09-27T11:45:55;1.83;;;1.70;;
17592;SDS011;8915;51.760;14.300;2022-09-27T11:48:40;2.37;;;1.77;;
17592;SDS011;8915;51.760;14.300;2022-09-27T11:51:29;3.73;;;2.40;;
17592;SDS011;8915;51.760;14.300;2022-09-27T11:54:09;3.37;;;2.03;;
17592;SDS011;8915;51.760;14.300;2022-09-27T11:56:48;6.33;;;3.30;;
17592;SDS011;8915;51.760;14.300;2022-09-27T11:59:44;5.00;;;2.77;;
17592;SDS011;8915;51.760;14.300;2022-09-27T12:02:44;2.30;;;1.30;;
17592;SDS011;8915;51.760;14.300;2022-09-27T12:05:29;1.10;;;0.93;;
17592;SDS011;8915;51.760;14.300;2022-09-27T12:08:07;2.00;;;1.30;;
17592;SDS011;8915;51.760;14.300;2022-09-27T12:10:47;0.43;;;0.40;;
17592;SDS011;8915;51.760;14.300;2022-09-27T12:13:26;0.33;;;0.30;;
17592;SDS011;8915;51.760;14.300;2022-09-27T12:15:56;0.77;;;0.60;;
17592;SDS011;8915;51.760;14.300;2022-09-27T12:18:29;1.33;;;0.80;;
17592;SDS011;8915;51.760;14.300;2022-09-27T12:21:02;1.20;;;0.80;;
17592;SDS011;8915;51.760;14.300;2022-09-27T12:23:33;2.07;;;1.47;;
17592;SDS011;8915;51.760;14.300;2022-09-27T12:26:14;0.63;;;0.63;;
17592;SDS011;8915;51.760;14.300;2022-09-27T12:28:47;0.90;;;0.70;;
17592;SDS011;8915;51.760;14.300;2022-09-27T12:31:20;0.87;;;0.70;;
17592;SDS011;8915;51.760;14.300;2022-09-27T12:33:51;1.53;;;0.90;;
17592;SDS011;8915;51.760;14.300;2022-09-27T12:36:29;1.63;;;0.77;;
17592;SDS011;8915;51.760;14.300;2022-09-27T12:39:01;2.40;;;1.37;;
17592;SDS011;8915;51.760;14.300;2022-09-27T12:41:35;2.07;;;1.57;;
17592;SDS011;8915;51.760;14.300;2022-09-27T12:44:25;2.73;;;1.73;;
17592;SDS011;8915;51.760;14.300;2022-09-27T12:46:55;2.93;;;1.70;;
17592;SDS011;8915;51.760;14.300;2022-09-27T12:49:32;2.30;;;1.20;;
17592;SDS011;8915;51.760;14.300;2022-09-27T12:52:14;1.70;;;1.10;;
17592;SDS011;8915;51.760;14.300;2022-09-27T12:58:02;1.20;;;1.00;;
17592;SDS011;8915;51.760;14.300;2022-09-27T13:00:49;0.83;;;0.80;;
17592;SDS011;8915;51.760;14.300;2022-09-27T13:03:37;0.70;;;0.70;;
17592;SDS011;8915;51.760;14.300;2022-09-27T13:06:33;4.63;;;2.60;;
17592;SDS011;8915;51.760;14.300;2022-09-27T13:09:23;1.33;;;1.10;;
17592;SDS011;8915;51.760;14.300;2022-09-27T13:12:08;1.30;;;1.10;;
17592;SDS011;8915;51.760;14.300;2022-09-27T13:14:39;2.83;;;0.90;;
17592;SDS011;8915;51.760;14.300;2022-09-27T13:20:43;1.00;;;0.97;;
17592;SDS011;8915;51.760;14.300;2022-09-27T13:26:45;0.80;;;0.80;;
17592;SDS011;8915;51.760;14.300;2022-09-27T13:29:23;0.70;;;0.70;;
17592;SDS011;8915;51.760;14.300;2022-09-27T13:32:01;0.80;;;0.80;;
17592;SDS011;8915;51.760;14.300;2022-09-27T13:35:10;0.70;;;0.70;;
17592;SDS011;8915;51.760;14.300;2022-09-27T13:37:48;1.33;;;0.73;;
17592;SDS011;8915;51.760;14.300;2022-09-27T13:40:37;0.40;;;0.40;;
17592;SDS011;8915;51.760;14.300;2022-09-27T13:43:33;0.60;;;0.60;;
17592;SDS011;8915;51.760;14.300;2022-09-27T13:46:21;0.67;;;0.60;;
17592;SDS011;8915;51.760;14.300;2022-09-27T13:48:51;0.60;;;0.50;;
17592;SDS011;8915;51.760;14.300;2022-09-27T13:51:34;0.47;;;0.47;;
17592;SDS011;8915;51.760;14.300;2022-09-27T13:54:06;4.90;;;1.90;;
17592;SDS011;8915;51.760;14.300;2022-09-27T13:57:36;3.60;;;2.50;;
17592;SDS011;8915;51.760;14.300;2022-09-27T14:00:11;3.97;;;2.20;;
17592;SDS011;8915;51.760;14.300;2022-09-27T14:02:54;3.70;;;2.00;;
17592;SDS011;8915;51.760;14.300;2022-09-27T14:05:29;2.47;;;1.90;;
17592;SDS011;8915;51.760;14.300;2022-09-27T14:07:59;1.27;;;1.17;;
17592;SDS011;8915;51.760;14.300;2022-09-27T14:10:30;1.57;;;1.00;;
17592;SDS011;8915;51.760;14.300;2022-09-27T14:12:59;1.00;;;0.90;;
17592;SDS011;8915;51.760;14.300;2022-09-27T14:15:28;0.80;;;0.80;;
17592;SDS011;8915;51.760;14.300;2022-09-27T14:18:00;0.70;;;0.70;;
17592;SDS011;8915;51.760;14.300;2022-09-27T14:20:31;0.73;;;0.73;;
17592;SDS011;8915;51.760;14.300;2022-09-27T14:23:02;0.70;;;0.70;;
17592;SDS011;8915;51.760;14.300;2022-09-27T14:25:38;1.37;;;1.00;;
17592;SDS011;8915;51.760;14.300;2022-09-27T14:28:18;0.83;;;0.70;;
17592;SDS011;8915;51.760;14.300;2022-09-27T14:31:06;0.60;;;0.60;;
17592;SDS011;8915;51.760;14.300;2022-09-27T14:33:49;0.47;;;0.47;;
17592;SDS011;8915;51.760;14.300;2022-09-27T14:36:22;0.63;;;0.63;;
17592;SDS011;8915;51.760;14.300;2022-09-27T14:39:13;1.23;;;0.70;;
17592;SDS011;8915;51.760;14.300;2022-09-27T14:41:49;0.50;;;0.50;;
17592;SDS011;8915;51.760;14.300;2022-09-27T14:44:17;0.43;;;0.43;;
17592;SDS011;8915;51.760;14.300;2022-09-27T14:46:45;0.40;;;0.40;;
17592;SDS011;8915;51.760;14.300;2022-09-27T14:49:18;0.40;;;0.40;;
17592;SDS011;8915;51.760;14.300;2022-09-27T14:51:49;3.00;;;0.40;;
17592;SDS011;8915;51.760;14.300;2022-09-27T14:54:20;0.33;;;0.33;;
17592;SDS011;8915;51.760;14.300;2022-09-27T14:56:50;0.43;;;0.40;;
17592;SDS011;8915;51.760;14.300;2022-09-27T14:59:21;1.00;;;0.50;;
17592;SDS011;8915;51.760;14.300;2022-09-27T15:01:54;1.10;;;0.53;;
17592;SDS011;8915;51.760;14.300;2022-09-27T15:04:24;2.20;;;0.50;;
17592;SDS011;8915;51.760;14.300;2022-09-27T15:06:52;0.20;;;0.13;;
17592;SDS011;8915;51.760;14.300;2022-09-27T15:09:19;0.40;;;0.20;;
17592;SDS011;8915;51.760;14.300;2022-09-27T15:11:48;1.10;;;0.50;;
17592;SDS011;8915;51.760;14.300;2022-09-27T15:14:19;0.67;;;0.67;;
17592;SDS011;8915;51.760;14.300;2022-09-27T15:16:48;0.60;;;0.40;;
17592;SDS011;8915;51.760;14.300;2022-09-27T15:19:16;0.47;;;0.47;;
17592;SDS011;8915;51.760;14.300;2022-09-27T15:21:49;0.33;;;0.30;;
17592;SDS011;8915;51.760;14.300;2022-09-27T15:24:35;0.30;;;0.30;;
17592;SDS011;8915;51.760;14.300;2022-09-27T15:27:02;0.90;;;0.50;;
17592;SDS011;8915;51.760;14.300;2022-09-27T15:29:31;0.50;;;0.50;;
17592;SDS011;8915;51.760;14.300;2022-09-27T15:31:58;0.80;;;0.53;;
17592;SDS011;8915;51.760;14.300;2022-09-27T15:34:28;0.70;;;0.70;;
17592;SDS011;8915;51.760;14.300;2022-09-27T15:36:57;1.57;;;1.20;;
17592;SDS011;8915;51.760;14.300;2022-09-27T15:39:28;1.90;;;1.20;;
17592;SDS011;8915;51.760;14.300;2022-09-27T15:42:01;2.57;;;2.00;;
17592;SDS011;8915;51.760;14.300;2022-09-27T15:44:36;3.87;;;2.43;;
17592;SDS011;8915;51.760;14.300;2022-09-27T15:52:56;1.10;;;1.00;;